Latest Weather Observations for Groote Eylandt Airport

IDD60801

Issued at 7:31 am CST Friday 23 June 2017 (issued every 30 minutes, with the page automatically refreshed every 10 minutes)

About weather observations | Map of weather stations | Latest weather observations for NT | Other Formats
Station Details ID: 014518 Name: GROOTE EYLANDT AIRPORT Lat: -13.97 Lon: 136.46 Height: 13.7 m
Data from the previous 72 hours. | See also: Recent months at Groote Eylandt Airport
Date/Time
CST
Temp
°C
App
Temp
°C
Dew
Point
°C
Rel
Hum
%
Delta-T
°C
Wind Press
QNH
hPa
Press
MSL
hPa
Rain since
9am
mm
Dir  Spd
km/h
Gust
km/h
Spd
kts
Gust
kts
23/07:30am 17.6 20.0 17.0 96 0.4 CALM 0 0 0 0 1014.9 1014.8 0.0
23/07:22am 17.4 19.7 16.8 96 0.4 CALM 0 0 0 0 1014.8 1014.7 0.0
23/07:00am 17.0 19.2 16.4 96 0.4 CALM 0 0 0 0 1014.7 1014.6 0.0
23/06:41am 17.0 19.1 16.2 95 0.5 CALM 0 0 0 0 1014.5 1014.4 0.0
23/06:30am 17.3 19.6 16.7 96 0.4 CALM 0 0 0 0 1014.5 1014.4 0.0
23/06:23am 17.4 19.7 16.8 96 0.4 CALM 0 0 0 0 1014.5 1014.4 0.0
23/06:00am 17.4 19.6 16.6 95 0.5 CALM 0 0 0 0 1014.6 1014.5 0.0
23/05:30am 17.3 19.4 16.3 94 0.6 CALM 0 0 0 0 1014.5 1014.4 0.0
23/05:00am 17.7 18.9 16.9 95 0.5 E 6 7 3 4 1014.5 1014.4 0.0
23/04:30am 17.9 19.2 17.1 95 0.5 E 6 7 3 4 1014.5 1014.4 0.0
23/04:00am 17.8 20.1 16.8 94 0.6 CALM 0 0 0 0 1014.3 1014.2 0.0
23/03:30am 18.2 20.8 17.4 95 0.5 CALM 0 0 0 0 1014.5 1014.4 0.0
23/03:00am 18.4 20.9 17.2 93 0.7 CALM 0 0 0 0 1014.6 1014.5 0.0
23/02:30am 18.8 21.4 17.6 93 0.7 CALM 0 0 0 0 1014.9 1014.8 0.0
23/02:00am 18.9 21.6 17.7 93 0.7 CALM 0 0 0 0 1015.2 1015.1 0.0
23/01:30am 19.2 21.0 18.2 94 0.6 ESE 6 7 3 4 1015.3 1015.2 0.0
23/01:00am 19.3 22.2 18.1 93 0.7 CALM 0 6 0 3 1015.5 1015.4 0.0
23/12:30am 19.8 22.9 18.6 93 0.7 CALM 0 0 0 0 1015.8 1015.7 0.0
23/12:00am 20.1 23.3 18.9 93 0.8 CALM 0 0 0 0 1016.1 1016.0 0.0
 
Date/Time
CST
Temp
°C
App
Temp
°C
Dew
Point
°C
Rel
Hum
%
Delta-T
°C
Wind Press
QNH
hPa
Press
MSL
hPa
Rain since
9am
mm
Dir  Spd
km/h
Gust
km/h
Spd
kts
Gust
kts
22/11:30pm 20.5 23.8 19.2 92 0.8 CALM 0 0 0 0 1016.3 1016.2 0.0
22/11:00pm 20.8 24.3 19.5 92 0.8 CALM 0 0 0 0 1016.4 1016.4 0.0
22/10:30pm 21.5 25.3 20.1 92 0.9 CALM 0 0 0 0 1016.6 1016.6 0.0
22/10:00pm 21.7 25.4 20.0 90 1.1 CALM 0 0 0 0 1016.7 1016.7 0.0
22/09:30pm 22.4 26.3 20.3 88 1.4 CALM 0 0 0 0 1016.6 1016.6 0.0
22/09:00pm 22.9 25.8 20.6 87 1.5 ESE 6 6 3 3 1016.4 1016.4 0.0
22/08:30pm 23.4 26.4 20.9 86 1.6 ESE 6 9 3 5 1016.1 1016.0 0.0
22/08:00pm 23.9 27.0 21.0 84 1.9 ESE 6 7 3 4 1015.8 1015.7 0.0
22/07:30pm 24.5 27.0 21.0 81 2.3 ESE 9 13 5 7 1015.4 1015.3 0.0
22/07:00pm 24.7 27.1 20.8 79 2.6 ESE 9 13 5 7 1014.9 1014.8 0.0
22/06:30pm 25.3 27.2 20.5 75 3.1 ESE 11 15 6 8 1014.4 1014.3 0.0
22/06:00pm 26.0 27.5 20.6 72 3.5 E 13 19 7 10 1014.0 1013.9 0.0
22/05:30pm 26.9 28.3 20.3 67 4.3 ESE 13 22 7 12 1013.6 1013.5 0.0
22/05:00pm 27.6 28.2 20.2 64 4.8 E 17 24 9 13 1013.4 1013.3 0.0
22/04:30pm 28.1 29.3 20.6 63 4.9 ESE 15 20 8 11 1013.0 1012.9 0.0
22/04:00pm 28.7 29.8 20.4 60 5.5 E 15 22 8 12 1012.9 1012.8 0.0
22/03:30pm 27.9 27.9 20.2 63 5.1 E 20 28 11 15 1013.0 1012.9 0.0
22/03:00pm 29.2 29.5 20.4 59 5.8 E 19 26 10 14 1013.0 1012.9 0.0
22/02:30pm 29.6 31.5 20.5 58 6.0 ESE 11 22 6 12 1013.1 1013.0 0.0
22/02:00pm 28.9 29.2 19.5 57 6.1 E 17 20 9 11 1013.3 1013.2 0.0
22/01:30pm 29.3 29.6 18.7 52 6.8 E 15 26 8 14 1013.6 1013.5 0.0
22/01:00pm 28.6 28.6 18.1 53 6.7 ESE 15 24 8 13 1014.0 1013.9 0.0
22/12:30pm 28.6 28.6 18.1 53 6.7 ESE 15 26 8 14 1014.4 1014.3 0.0
22/12:00pm 28.9 28.0 18.1 52 6.9 E 20 28 11 15 1014.7 1014.6 0.0
22/11:30am 28.5 28.9 18.9 56 6.2 ESE 15 24 8 13 1015.1 1015.0 0.0
22/11:00am 28.9 29.0 19.2 55 6.3 ESE 17 28 9 15 1015.4 1015.3 0.0
22/10:30am 28.2 28.0 18.6 56 6.2 ESE 17 28 9 15 1015.7 1015.6 0.0
22/10:00am 27.4 27.5 18.4 58 5.7 ESE 15 22 8 12 1015.7 1015.6 0.0
22/09:30am 26.7 27.5 19.1 63 4.9 E 13 24 7 13 1015.9 1015.8 0.0
22/09:00am 25.8 28.3 21.0 75 3.2 ESE 9 17 5 9 1016.0 1015.9 0.0
22/08:30am 24.4 27.6 21.3 83 2.0 E 6 9 3 5 1016.0 1015.9 0.0
22/08:00am 22.9 27.2 21.2 90 1.1 CALM 0 0 0 0 1015.7 1015.6 0.0
22/07:30am 20.2 22.5 19.5 96 0.4 SE 6 7 3 4 1015.4 1015.3 0.0
22/07:00am 18.0 20.1 17.2 95 0.5 ESE 2 6 1 3 1015.1 1015.0 0.0
22/06:30am 17.7 18.9 16.9 95 0.5 ESE 6 7 3 4 1014.9 1014.8 0.0
22/06:00am 17.7 20.1 16.9 95 0.5 CALM 0 0 0 0 1014.6 1014.5 0.0
22/05:30am 17.6 19.5 16.6 94 0.6 ESE 2 7 1 4 1014.5 1014.4 0.0
22/05:00am 17.9 20.3 16.9 94 0.6 CALM 0 0 0 0 1014.5 1014.4 0.0
22/04:30am 18.5 21.1 17.5 94 0.6 CALM 0 0 0 0 1014.3 1014.2 0.0
22/04:00am 18.7 21.5 17.9 95 0.5 CALM 0 0 0 0 1014.3 1014.2 0.0
22/03:30am 18.9 20.5 17.9 94 0.6 ESE 6 6 3 3 1014.4 1014.3 0.0
22/03:00am 19.5 22.4 18.3 93 0.7 CALM 0 0 0 0 1014.6 1014.5 0.0
22/02:30am 20.1 23.3 18.9 93 0.8 CALM 0 0 0 0 1014.8 1014.7 0.0
22/02:00am 20.3 23.6 19.1 93 0.8 CALM 0 0 0 0 1015.0 1014.9 0.0
22/01:30am 21.1 23.6 20.3 95 0.5 ESE 7 9 4 5 1015.2 1015.1 0.0
22/01:00am 21.1 23.7 20.4 96 0.5 ESE 7 9 4 5 1015.4 1015.3 0.0
22/12:30am 20.4 22.6 19.1 92 0.8 ESE 6 7 3 4 1015.6 1015.5 0.0
22/12:00am 21.3 23.9 20.5 95 0.5 ESE 7 9 4 5 1015.7 1015.6 0.0
 
Date/Time
CST
Temp
°C
App
Temp
°C
Dew
Point
°C
Rel
Hum
%
Delta-T
°C
Wind Press
QNH
hPa
Press
MSL
hPa
Rain since
9am
mm
Dir  Spd
km/h
Gust
km/h
Spd
kts
Gust
kts
21/11:30pm 21.1 23.5 20.1 94 0.6 SSE 7 9 4 5 1015.9 1015.8 0.0
21/11:00pm 21.2 23.7 19.8 92 0.9 ESE 6 7 3 4 1016.1 1016.0 0.0
21/10:30pm 21.1 23.9 19.6 91 1.0 SE 4 6 2 3 1016.3 1016.2 0.0
21/10:00pm 21.2 23.9 19.5 90 1.1 SE 4 7 2 4 1016.3 1016.2 0.0
21/09:30pm 21.5 23.8 19.4 88 1.3 SSE 6 7 3 4 1016.1 1016.0 0.0
21/09:00pm 21.9 24.2 19.5 86 1.5 SE 6 7 3 4 1016.0 1015.9 0.0
21/08:30pm 22.3 24.6 19.5 84 1.8 SE 6 7 3 4 1015.7 1015.6 0.0
21/08:00pm 22.6 24.9 19.4 82 2.0 SE 6 9 3 5 1015.5 1015.4 0.0
21/07:30pm 23.0 25.1 19.0 78 2.5 SSE 6 11 3 6 1015.2 1015.1 0.0
21/07:00pm 23.6 25.1 18.9 75 3.0 SSE 9 17 5 9 1014.8 1014.7 0.0
21/06:30pm 24.2 25.5 18.4 70 3.7 SSE 9 13 5 7 1014.3 1014.2 0.0
21/06:00pm 25.4 26.0 16.8 59 5.3 ESE 9 13 5 7 1014.0 1013.9 0.0
21/05:30pm 26.6 25.7 15.9 51 6.6 ESE 15 22 8 12 1013.7 1013.6 0.0
21/05:00pm 27.4 26.3 16.4 51 6.8 E 17 24 9 13 1013.3 1013.2 0.0
21/04:30pm 28.0 27.4 16.6 50 7.1 ESE 15 20 8 11 1013.0 1012.9 0.0
21/04:00pm 28.8 27.3 16.4 47 7.7 E 19 24 10 13 1012.9 1012.8 0.0
21/03:30pm 28.4 26.5 15.3 45 8.0 ESE 19 26 10 14 1012.9 1012.8 0.0
21/03:00pm 29.2 27.0 15.0 42 8.7 E 20 28 11 15 1013.0 1012.9 0.0
21/02:30pm 29.1 27.6 14.1 40 9.0 ESE 15 24 8 13 1013.2 1013.1 0.0
21/02:00pm 29.0 26.3 12.8 36 9.5 E 19 26 10 14 1013.4 1013.3 0.0
21/01:30pm 29.2 26.7 13.4 38 9.4 E 19 28 10 15 1013.9 1013.8 0.0
21/01:00pm 29.6 26.2 13.8 38 9.5 E 24 32 13 17 1014.3 1014.2 0.0
21/12:30pm 29.4 28.0 14.4 40 9.1 ESE 15 28 8 15 1014.7 1014.6 0.0
21/12:00pm 29.0 26.8 14.8 42 8.6 ESE 20 28 11 15 1015.1 1015.0 0.0
21/11:30am 28.7 26.8 14.1 40 8.8 ESE 17 26 9 14 1015.3 1015.2 0.0
21/11:00am 28.8 26.2 13.9 40 8.9 ESE 20 30 11 16 1015.6 1015.5 0.0
21/10:30am 28.0 26.6 14.6 44 8.1 ESE 15 30 8 16 1015.8 1015.7 0.0
21/10:00am 27.7 27.1 15.7 48 7.4 ESE 13 24 7 13 1015.8 1015.7 0.0
21/09:30am 26.5 25.9 16.7 55 6.1 SE 15 26 8 14 1016.0 1015.9 0.0
21/09:00am 25.9 26.0 17.5 59 5.3 SE 13 24 7 13 1016.1 1016.0 0.0
21/08:30am 25.2 26.4 18.2 65 4.4 SSE 9 17 5 9 1016.0 1015.9 0.0
21/08:00am 23.7 25.5 18.8 74 3.1 SSE 7 15 4 8 1015.7 1015.6 0.0
21/07:30am 20.8 23.6 18.9 89 1.2 SSE 2 7 1 4 1015.4 1015.3 0.0
21/07:00am 19.3 22.1 18.0 92 0.8 CALM 0 0 0 0 1015.1 1015.0 0.0
21/06:30am 19.4 22.1 17.7 90 1.0 CALM 0 0 0 0 1014.8 1014.7 0.0
21/06:00am 19.7 22.4 17.8 89 1.2 CALM 0 0 0 0 1014.5 1014.4 0.0
21/05:30am 20.4 22.2 18.2 87 1.4 ESE 6 7 3 4 1014.2 1014.1 0.0
21/05:00am 21.2 23.2 18.8 86 1.5 E 6 7 3 4 1013.9 1013.8 0.0
21/04:30am 21.8 23.7 19.0 84 1.8 ESE 7 11 4 6 1013.7 1013.6 0.0
21/04:00am 22.2 24.4 19.6 85 1.7 SE 7 9 4 5 1013.8 1013.7 0.0
21/03:30am 22.7 24.7 19.9 84 1.8 ESE 9 15 5 8 1013.8 1013.7 0.0
21/03:00am 23.1 24.7 19.9 82 2.1 ESE 11 13 6 7 1013.9 1013.8 0.0
21/02:30am 23.2 25.7 20.3 84 1.9 ESE 7 11 4 6 1014.1 1014.0 0.0
21/02:00am 23.1 25.7 21.2 89 1.2 ESE 9 19 5 10 1014.5 1014.4 0.0
21/01:30am 22.9 25.5 21.2 90 1.1 ESE 9 13 5 7 1014.7 1014.6 0.0
21/01:00am 22.9 25.5 21.2 90 1.1 ESE 9 15 5 8 1014.8 1014.7 0.0
21/12:30am 23.2 25.6 21.5 90 1.1 ESE 11 17 6 9 1014.7 1014.6 0.0
21/12:00am 23.3 26.5 21.6 90 1.1 ESE 7 13 4 7 1014.7 1014.6 0.0
 
Date/Time
CST
Temp
°C
App
Temp
°C
Dew
Point
°C
Rel
Hum
%
Delta-T
°C
Wind Press
QNH
hPa
Press
MSL
hPa
Rain since
9am
mm
Dir  Spd
km/h
Gust
km/h
Spd
kts
Gust
kts
20/11:30pm 23.4 26.6 21.7 90 1.1 SSE 7 11 4 6 1014.9 1014.8 0.0
20/11:00pm 23.7 27.1 22.0 90 1.1 SE 7 11 4 6 1015.2 1015.1 0.0
20/10:53pm 23.7 26.7 22.0 90 1.1 SSE 9 15 5 8 1015.2 1015.1 0.0
20/10:30pm 23.9 26.9 22.0 89 1.3 SSE 9 15 5 8 1015.4 1015.3 0.0
20/10:00pm 24.1 27.2 22.2 89 1.3 SE 9 15 5 8 1015.3 1015.2 0.0
20/09:36pm 23.8 26.9 22.1 90 1.1 SE 9 15 5 8 1015.3 1015.2 0.0
20/09:30pm 23.7 27.1 22.0 90 1.1 SE 7 13 4 7 1015.2 1015.1 0.0
20/09:12pm 23.7 27.0 21.8 89 1.3 SE 7 11 4 6 1015.1 1015.0 0.0
20/09:00pm 23.8 26.8 21.9 89 1.3 SSE 9 17 5 9 1015.1 1015.0 0.0
20/08:33pm 23.5 26.6 21.4 88 1.4 SSE 7 11 4 6 1014.9 1014.8 0.0
20/08:30pm 23.5 26.6 21.4 88 1.4 SSE 7 11 4 6 1015.0 1014.9 0.0
20/08:00pm 23.7 26.9 21.2 86 1.6 SE 6 9 3 5 1014.9 1014.8 0.0
20/07:30pm 23.8 26.8 20.9 84 1.9 SSE 6 7 3 4 1014.5 1014.4 0.0
20/07:00pm 24.3 27.3 20.8 81 2.3 S 6 11 3 6 1014.1 1014.0 0.0
20/06:30pm 24.8 27.2 20.9 79 2.6 SSE 9 15 5 8 1013.8 1013.7 0.0
20/06:00pm 25.5 27.6 21.0 76 3.0 SSE 11 17 6 9 1013.5 1013.4 0.0
20/05:30pm 26.7 28.1 20.3 68 4.2 ESE 13 19 7 10 1013.1 1013.0 0.0
20/05:00pm 27.3 29.0 20.1 64 4.7 ESE 11 19 6 10 1012.9 1012.8 0.0
20/04:30pm 28.1 29.5 19.6 60 5.5 ESE 11 15 6 8 1012.6 1012.5 0.0
20/04:00pm 28.4 29.8 19.6 59 5.7 SE 11 17 6 9 1012.6 1012.5 0.0
20/03:30pm 28.6 29.0 19.0 56 6.2 ESE 15 20 8 11 1012.4 1012.3 0.0
20/03:00pm 29.2 29.0 17.7 50 7.3 ESE 15 24 8 13 1012.4 1012.3 0.0
20/02:30pm 29.5 28.1 17.0 47 7.9 E 20 28 11 15 1012.6 1012.5 0.0
20/02:00pm 29.5 27.8 17.3 47 7.7 ESE 22 33 12 18 1013.0 1012.9 0.0
20/01:30pm 29.4 27.7 16.2 44 8.2 ESE 20 33 11 18 1013.1 1013.0 0.0
20/01:00pm 30.7 29.4 16.7 43 8.8 ESE 19 28 10 15 1013.4 1013.3 0.0
20/12:30pm 29.5 26.4 14.5 40 9.1 ESE 24 39 13 21 1013.7 1013.6 0.0
20/12:00pm 29.3 26.3 14.7 41 8.9 ESE 24 39 13 21 1014.1 1014.0 0.0
20/11:30am 29.9 28.0 16.7 45 8.3 ESE 22 35 12 19 1014.3 1014.2 0.0
20/11:00am 29.2 26.4 16.4 46 8.0 E 26 37 14 20 1014.5 1014.4 0.0
20/10:30am 28.7 26.6 16.3 47 7.7 ESE 22 41 12 22 1014.6 1014.5 0.0
20/10:00am 27.7 26.0 17.3 53 6.5 ESE 22 37 12 20 1014.5 1014.4 0.0
20/09:30am 27.2 26.7 17.9 56 5.9 ESE 17 33 9 18 1014.6 1014.5 0.0
20/09:00am 26.5 26.7 19.4 65 4.6 SE 17 28 9 15 1014.6 1014.5 0.0
20/08:30am 25.7 26.1 18.9 66 4.3 SE 15 28 8 15 1014.4 1014.3 0.0
20/08:00am 24.8 25.8 19.4 72 3.5 ESE 13 24 7 13 1014.2 1014.1 0.0

Other Formats:

Comma delimited format used in spreadsheet applications
http://www.bom.gov.au/fwo/IDD60801/IDD60801.94153.axf

JavaScript Object Notation format (JSON) in row-major order
http://www.bom.gov.au/fwo/IDD60801/IDD60801.94153.json